sensor_id;sensor_type;location;lat;lon;timestamp;P1;durP1;ratioP1;P2;durP2;ratioP2
23080;SDS011;11708;50.570;8.532;2022-07-15T00:00:05;4.07;;;2.72;;
23080;SDS011;11708;50.570;8.532;2022-07-15T00:02:33;3.80;;;2.80;;
23080;SDS011;11708;50.570;8.532;2022-07-15T00:04:59;5.72;;;2.63;;
23080;SDS011;11708;50.570;8.532;2022-07-15T00:07:24;7.55;;;2.65;;
23080;SDS011;11708;50.570;8.532;2022-07-15T00:09:50;5.45;;;2.33;;
23080;SDS011;11708;50.570;8.532;2022-07-15T00:12:34;7.45;;;2.45;;
23080;SDS011;11708;50.570;8.532;2022-07-15T00:15:00;5.63;;;2.33;;
23080;SDS011;11708;50.570;8.532;2022-07-15T00:17:26;3.97;;;2.50;;
23080;SDS011;11708;50.570;8.532;2022-07-15T00:19:51;6.50;;;2.30;;
23080;SDS011;11708;50.570;8.532;2022-07-15T00:22:18;3.60;;;2.38;;
23080;SDS011;11708;50.570;8.532;2022-07-15T00:24:43;4.70;;;2.72;;
23080;SDS011;11708;50.570;8.532;2022-07-15T00:27:09;2.75;;;2.45;;
23080;SDS011;11708;50.570;8.532;2022-07-15T00:29:34;4.38;;;2.28;;
23080;SDS011;11708;50.570;8.532;2022-07-15T00:32:00;2.50;;;2.28;;
23080;SDS011;11708;50.570;8.532;2022-07-15T00:34:25;8.75;;;2.90;;
23080;SDS011;11708;50.570;8.532;2022-07-15T00:36:51;3.28;;;2.53;;
23080;SDS011;11708;50.570;8.532;2022-07-15T00:39:17;3.95;;;2.83;;
23080;SDS011;11708;50.570;8.532;2022-07-15T00:41:42;6.60;;;2.53;;
23080;SDS011;11708;50.570;8.532;2022-07-15T00:44:09;3.03;;;2.58;;
23080;SDS011;11708;50.570;8.532;2022-07-15T00:46:35;2.13;;;1.92;;
23080;SDS011;11708;50.570;8.532;2022-07-15T00:49:02;3.60;;;2.30;;
23080;SDS011;11708;50.570;8.532;2022-07-15T00:51:33;4.13;;;2.38;;
23080;SDS011;11708;50.570;8.532;2022-07-15T00:54:02;3.38;;;2.30;;
23080;SDS011;11708;50.570;8.532;2022-07-15T00:56:34;6.38;;;2.75;;
23080;SDS011;11708;50.570;8.532;2022-07-15T00:59:04;4.25;;;2.45;;
23080;SDS011;11708;50.570;8.532;2022-07-15T01:01:30;4.30;;;2.63;;
23080;SDS011;11708;50.570;8.532;2022-07-15T01:03:57;7.45;;;2.55;;
23080;SDS011;11708;50.570;8.532;2022-07-15T01:06:24;3.53;;;2.45;;
23080;SDS011;11708;50.570;8.532;2022-07-15T01:08:52;5.68;;;2.15;;
23080;SDS011;11708;50.570;8.532;2022-07-15T01:11:24;3.05;;;2.30;;
23080;SDS011;11708;50.570;8.532;2022-07-15T01:13:51;6.80;;;2.60;;
23080;SDS011;11708;50.570;8.532;2022-07-15T01:16:17;4.88;;;2.20;;
23080;SDS011;11708;50.570;8.532;2022-07-15T01:18:42;5.10;;;2.35;;
23080;SDS011;11708;50.570;8.532;2022-07-15T01:21:08;4.55;;;2.30;;
23080;SDS011;11708;50.570;8.532;2022-07-15T01:23:33;4.15;;;1.92;;
23080;SDS011;11708;50.570;8.532;2022-07-15T01:26:01;4.68;;;2.45;;
23080;SDS011;11708;50.570;8.532;2022-07-15T01:28:26;4.15;;;2.45;;
23080;SDS011;11708;50.570;8.532;2022-07-15T01:30:52;5.22;;;2.65;;
23080;SDS011;11708;50.570;8.532;2022-07-15T01:33:17;3.67;;;2.17;;
23080;SDS011;11708;50.570;8.532;2022-07-15T01:35:43;5.68;;;2.28;;
23080;SDS011;11708;50.570;8.532;2022-07-15T01:38:13;2.63;;;1.92;;
23080;SDS011;11708;50.570;8.532;2022-07-15T01:40:38;2.88;;;2.08;;
23080;SDS011;11708;50.570;8.532;2022-07-15T01:43:04;3.25;;;2.70;;
23080;SDS011;11708;50.570;8.532;2022-07-15T01:45:29;3.25;;;2.10;;
23080;SDS011;11708;50.570;8.532;2022-07-15T01:47:55;3.15;;;2.55;;
23080;SDS011;11708;50.570;8.532;2022-07-15T01:50:21;3.58;;;2.50;;
23080;SDS011;11708;50.570;8.532;2022-07-15T01:52:46;2.72;;;2.35;;
23080;SDS011;11708;50.570;8.532;2022-07-15T01:55:12;3.13;;;2.58;;
23080;SDS011;11708;50.570;8.532;2022-07-15T01:57:38;3.20;;;2.38;;
23080;SDS011;11708;50.570;8.532;2022-07-15T02:00:05;4.97;;;2.40;;
23080;SDS011;11708;50.570;8.532;2022-07-15T02:02:31;4.28;;;2.30;;
23080;SDS011;11708;50.570;8.532;2022-07-15T02:04:57;2.83;;;2.47;;
23080;SDS011;11708;50.570;8.532;2022-07-15T02:07:23;2.50;;;1.98;;
23080;SDS011;11708;50.570;8.532;2022-07-15T02:09:48;4.65;;;2.60;;
23080;SDS011;11708;50.570;8.532;2022-07-15T02:12:14;2.63;;;2.08;;
23080;SDS011;11708;50.570;8.532;2022-07-15T02:14:40;4.25;;;2.53;;
23080;SDS011;11708;50.570;8.532;2022-07-15T02:17:05;3.22;;;2.00;;
23080;SDS011;11708;50.570;8.532;2022-07-15T02:19:32;3.53;;;2.50;;
23080;SDS011;11708;50.570;8.532;2022-07-15T02:21:58;3.50;;;2.28;;
23080;SDS011;11708;50.570;8.532;2022-07-15T02:24:23;3.47;;;2.22;;
23080;SDS011;11708;50.570;8.532;2022-07-15T02:26:49;4.28;;;2.30;;
23080;SDS011;11708;50.570;8.532;2022-07-15T02:29:15;3.80;;;2.22;;
23080;SDS011;11708;50.570;8.532;2022-07-15T02:31:41;3.90;;;2.22;;
23080;SDS011;11708;50.570;8.532;2022-07-15T02:34:06;3.15;;;2.22;;
23080;SDS011;11708;50.570;8.532;2022-07-15T02:36:32;3.15;;;2.20;;
23080;SDS011;11708;50.570;8.532;2022-07-15T02:38:58;3.92;;;2.38;;
23080;SDS011;11708;50.570;8.532;2022-07-15T02:41:24;3.85;;;2.30;;
23080;SDS011;11708;50.570;8.532;2022-07-15T02:43:50;4.82;;;2.67;;
23080;SDS011;11708;50.570;8.532;2022-07-15T02:46:16;3.40;;;2.30;;
23080;SDS011;11708;50.570;8.532;2022-07-15T02:48:42;2.67;;;2.10;;
23080;SDS011;11708;50.570;8.532;2022-07-15T02:51:08;3.25;;;2.28;;
23080;SDS011;11708;50.570;8.532;2022-07-15T02:53:34;4.60;;;2.63;;
23080;SDS011;11708;50.570;8.532;2022-07-15T02:56:00;2.85;;;2.35;;
23080;SDS011;11708;50.570;8.532;2022-07-15T02:58:29;3.13;;;2.00;;
23080;SDS011;11708;50.570;8.532;2022-07-15T03:00:56;3.80;;;2.42;;
23080;SDS011;11708;50.570;8.532;2022-07-15T03:03:23;2.85;;;2.50;;
23080;SDS011;11708;50.570;8.532;2022-07-15T03:05:49;4.28;;;2.40;;
23080;SDS011;11708;50.570;8.532;2022-07-15T03:08:15;8.73;;;2.65;;
23080;SDS011;11708;50.570;8.532;2022-07-15T03:10:41;4.78;;;2.47;;
23080;SDS011;11708;50.570;8.532;2022-07-15T03:13:07;4.18;;;2.42;;
23080;SDS011;11708;50.570;8.532;2022-07-15T03:15:33;7.00;;;2.70;;
23080;SDS011;11708;50.570;8.532;2022-07-15T03:17:59;2.80;;;2.50;;
23080;SDS011;11708;50.570;8.532;2022-07-15T03:20:25;4.63;;;2.80;;
23080;SDS011;11708;50.570;8.532;2022-07-15T03:22:50;3.10;;;2.63;;
23080;SDS011;11708;50.570;8.532;2022-07-15T03:25:16;2.92;;;2.58;;
23080;SDS011;11708;50.570;8.532;2022-07-15T03:27:42;4.20;;;2.78;;
23080;SDS011;11708;50.570;8.532;2022-07-15T03:30:07;4.53;;;3.00;;
23080;SDS011;11708;50.570;8.532;2022-07-15T03:32:33;5.47;;;2.70;;
23080;SDS011;11708;50.570;8.532;2022-07-15T03:34:59;4.70;;;2.85;;
23080;SDS011;11708;50.570;8.532;2022-07-15T03:37:24;4.97;;;2.88;;
23080;SDS011;11708;50.570;8.532;2022-07-15T03:39:50;4.95;;;2.80;;
23080;SDS011;11708;50.570;8.532;2022-07-15T03:42:16;5.35;;;2.50;;
23080;SDS011;11708;50.570;8.532;2022-07-15T03:44:41;5.65;;;2.78;;
23080;SDS011;11708;50.570;8.532;2022-07-15T03:47:07;5.10;;;2.95;;
23080;SDS011;11708;50.570;8.532;2022-07-15T03:49:33;6.45;;;2.80;;
23080;SDS011;11708;50.570;8.532;2022-07-15T03:51:58;4.05;;;2.72;;
23080;SDS011;11708;50.570;8.532;2022-07-15T03:54:24;5.78;;;2.55;;
23080;SDS011;11708;50.570;8.532;2022-07-15T03:56:49;4.88;;;2.67;;
23080;SDS011;11708;50.570;8.532;2022-07-15T03:59:15;5.32;;;2.45;;
23080;SDS011;11708;50.570;8.532;2022-07-15T04:01:42;4.55;;;2.60;;
23080;SDS011;11708;50.570;8.532;2022-07-15T04:04:08;4.03;;;2.55;;
23080;SDS011;11708;50.570;8.532;2022-07-15T04:06:34;3.47;;;2.60;;
23080;SDS011;11708;50.570;8.532;2022-07-15T04:08:59;2.72;;;2.47;;
23080;SDS011;11708;50.570;8.532;2022-07-15T04:11:25;4.22;;;2.55;;
23080;SDS011;11708;50.570;8.532;2022-07-15T04:13:51;5.38;;;2.30;;
23080;SDS011;11708;50.570;8.532;2022-07-15T04:16:16;3.40;;;2.50;;
23080;SDS011;11708;50.570;8.532;2022-07-15T04:18:42;4.25;;;2.85;;
23080;SDS011;11708;50.570;8.532;2022-07-15T04:21:08;3.60;;;3.00;;
23080;SDS011;11708;50.570;8.532;2022-07-15T04:23:34;7.47;;;2.92;;
23080;SDS011;11708;50.570;8.532;2022-07-15T04:26:02;4.07;;;2.60;;
23080;SDS011;11708;50.570;8.532;2022-07-15T04:28:28;4.72;;;2.55;;
23080;SDS011;11708;50.570;8.532;2022-07-15T04:30:54;6.30;;;2.80;;
23080;SDS011;11708;50.570;8.532;2022-07-15T04:33:20;4.15;;;2.45;;
23080;SDS011;11708;50.570;8.532;2022-07-15T04:35:46;2.90;;;2.60;;
23080;SDS011;11708;50.570;8.532;2022-07-15T04:38:12;4.85;;;2.78;;
23080;SDS011;11708;50.570;8.532;2022-07-15T04:40:37;4.57;;;2.88;;
23080;SDS011;11708;50.570;8.532;2022-07-15T04:43:05;4.75;;;2.70;;
23080;SDS011;11708;50.570;8.532;2022-07-15T04:45:31;4.85;;;2.97;;
23080;SDS011;11708;50.570;8.532;2022-07-15T04:47:57;5.55;;;2.55;;
23080;SDS011;11708;50.570;8.532;2022-07-15T04:50:22;7.60;;;2.60;;
23080;SDS011;11708;50.570;8.532;2022-07-15T04:53:06;4.95;;;2.70;;
23080;SDS011;11708;50.570;8.532;2022-07-15T04:55:32;3.30;;;2.63;;
23080;SDS011;11708;50.570;8.532;2022-07-15T04:57:58;3.83;;;2.60;;
23080;SDS011;11708;50.570;8.532;2022-07-15T05:00:24;6.13;;;2.90;;
23080;SDS011;11708;50.570;8.532;2022-07-15T05:02:49;4.25;;;2.63;;
23080;SDS011;11708;50.570;8.532;2022-07-15T05:05:15;5.78;;;2.50;;
23080;SDS011;11708;50.570;8.532;2022-07-15T05:07:41;4.60;;;2.78;;
23080;SDS011;11708;50.570;8.532;2022-07-15T05:10:07;4.60;;;2.85;;
23080;SDS011;11708;50.570;8.532;2022-07-15T05:12:34;3.00;;;2.45;;
23080;SDS011;11708;50.570;8.532;2022-07-15T05:14:59;2.70;;;2.45;;
23080;SDS011;11708;50.570;8.532;2022-07-15T05:17:25;8.90;;;2.90;;
23080;SDS011;11708;50.570;8.532;2022-07-15T05:19:52;3.08;;;2.70;;
23080;SDS011;11708;50.570;8.532;2022-07-15T05:22:18;4.38;;;2.35;;
23080;SDS011;11708;50.570;8.532;2022-07-15T05:24:43;5.18;;;2.10;;
23080;SDS011;11708;50.570;8.532;2022-07-15T05:27:10;3.58;;;2.50;;
23080;SDS011;11708;50.570;8.532;2022-07-15T05:29:36;5.68;;;2.67;;
23080;SDS011;11708;50.570;8.532;2022-07-15T05:32:01;4.20;;;2.38;;
23080;SDS011;11708;50.570;8.532;2022-07-15T05:34:27;4.40;;;3.13;;
23080;SDS011;11708;50.570;8.532;2022-07-15T05:36:52;3.88;;;2.78;;
23080;SDS011;11708;50.570;8.532;2022-07-15T05:39:18;4.43;;;2.45;;
23080;SDS011;11708;50.570;8.532;2022-07-15T05:41:43;5.50;;;2.80;;
23080;SDS011;11708;50.570;8.532;2022-07-15T05:44:09;5.68;;;2.50;;
23080;SDS011;11708;50.570;8.532;2022-07-15T05:46:34;4.50;;;2.78;;
23080;SDS011;11708;50.570;8.532;2022-07-15T05:49:01;6.00;;;2.38;;
23080;SDS011;11708;50.570;8.532;2022-07-15T05:51:26;3.00;;;2.45;;
23080;SDS011;11708;50.570;8.532;2022-07-15T05:53:53;5.18;;;2.88;;
23080;SDS011;11708;50.570;8.532;2022-07-15T05:56:19;9.18;;;3.60;;
23080;SDS011;11708;50.570;8.532;2022-07-15T05:58:44;6.20;;;2.80;;
23080;SDS011;11708;50.570;8.532;2022-07-15T06:01:10;4.82;;;2.97;;
23080;SDS011;11708;50.570;8.532;2022-07-15T06:03:35;3.67;;;2.67;;
23080;SDS011;11708;50.570;8.532;2022-07-15T06:06:02;12.70;;;7.95;;
23080;SDS011;11708;50.570;8.532;2022-07-15T06:08:31;4.00;;;3.15;;
23080;SDS011;11708;50.570;8.532;2022-07-15T06:10:57;8.40;;;2.70;;
23080;SDS011;11708;50.570;8.532;2022-07-15T06:13:23;8.77;;;3.10;;
23080;SDS011;11708;50.570;8.532;2022-07-15T06:15:49;7.65;;;2.33;;
23080;SDS011;11708;50.570;8.532;2022-07-15T06:18:14;6.85;;;2.78;;
23080;SDS011;11708;50.570;8.532;2022-07-15T06:20:41;8.73;;;2.60;;
23080;SDS011;11708;50.570;8.532;2022-07-15T06:23:07;4.72;;;2.20;;
23080;SDS011;11708;50.570;8.532;2022-07-15T06:25:32;3.65;;;2.63;;
23080;SDS011;11708;50.570;8.532;2022-07-15T06:27:58;8.07;;;2.90;;
23080;SDS011;11708;50.570;8.532;2022-07-15T06:30:23;7.90;;;2.78;;
23080;SDS011;11708;50.570;8.532;2022-07-15T06:32:49;6.50;;;2.80;;
23080;SDS011;11708;50.570;8.532;2022-07-15T06:35:14;7.40;;;2.78;;
23080;SDS011;11708;50.570;8.532;2022-07-15T06:37:40;4.88;;;2.80;;
23080;SDS011;11708;50.570;8.532;2022-07-15T06:40:06;7.97;;;2.90;;
23080;SDS011;11708;50.570;8.532;2022-07-15T06:42:32;5.20;;;3.00;;
23080;SDS011;11708;50.570;8.532;2022-07-15T06:44:58;5.07;;;3.10;;
23080;SDS011;11708;50.570;8.532;2022-07-15T06:47:23;5.50;;;3.30;;
23080;SDS011;11708;50.570;8.532;2022-07-15T06:49:49;7.20;;;2.92;;
23080;SDS011;11708;50.570;8.532;2022-07-15T06:52:15;5.95;;;3.08;;
23080;SDS011;11708;50.570;8.532;2022-07-15T06:54:41;6.25;;;3.28;;
23080;SDS011;11708;50.570;8.532;2022-07-15T06:57:07;4.18;;;2.90;;
23080;SDS011;11708;50.570;8.532;2022-07-15T06:59:33;6.40;;;2.80;;
23080;SDS011;11708;50.570;8.532;2022-07-15T07:01:59;5.30;;;2.85;;
23080;SDS011;11708;50.570;8.532;2022-07-15T07:04:28;9.05;;;2.95;;
23080;SDS011;11708;50.570;8.532;2022-07-15T07:06:53;10.15;;;2.90;;
23080;SDS011;11708;50.570;8.532;2022-07-15T07:09:19;4.95;;;2.83;;
23080;SDS011;11708;50.570;8.532;2022-07-15T07:11:44;8.07;;;3.05;;
23080;SDS011;11708;50.570;8.532;2022-07-15T07:14:10;4.10;;;2.67;;
23080;SDS011;11708;50.570;8.532;2022-07-15T07:16:36;6.28;;;2.92;;
23080;SDS011;11708;50.570;8.532;2022-07-15T07:19:02;4.18;;;2.85;;
23080;SDS011;11708;50.570;8.532;2022-07-15T07:21:27;6.93;;;2.95;;
23080;SDS011;11708;50.570;8.532;2022-07-15T07:23:53;8.38;;;3.22;;
23080;SDS011;11708;50.570;8.532;2022-07-15T07:26:18;7.72;;;3.00;;
23080;SDS011;11708;50.570;8.532;2022-07-15T07:28:44;4.00;;;3.13;;
23080;SDS011;11708;50.570;8.532;2022-07-15T07:31:11;5.30;;;3.10;;
23080;SDS011;11708;50.570;8.532;2022-07-15T07:33:38;6.00;;;2.80;;
23080;SDS011;11708;50.570;8.532;2022-07-15T07:36:04;7.38;;;2.88;;
23080;SDS011;11708;50.570;8.532;2022-07-15T07:38:31;7.38;;;2.65;;
23080;SDS011;11708;50.570;8.532;2022-07-15T07:40:58;5.32;;;3.10;;
23080;SDS011;11708;50.570;8.532;2022-07-15T07:43:27;8.60;;;3.05;;
23080;SDS011;11708;50.570;8.532;2022-07-15T07:45:53;4.13;;;2.78;;
23080;SDS011;11708;50.570;8.532;2022-07-15T07:48:19;13.18;;;2.63;;
23080;SDS011;11708;50.570;8.532;2022-07-15T07:50:45;6.95;;;2.67;;
23080;SDS011;11708;50.570;8.532;2022-07-15T07:53:11;6.65;;;2.35;;
23080;SDS011;11708;50.570;8.532;2022-07-15T07:55:37;7.78;;;3.30;;
23080;SDS011;11708;50.570;8.532;2022-07-15T07:58:03;10.38;;;2.92;;
23080;SDS011;11708;50.570;8.532;2022-07-15T08:00:30;6.50;;;2.67;;
23080;SDS011;11708;50.570;8.532;2022-07-15T08:02:57;6.90;;;3.30;;
23080;SDS011;11708;50.570;8.532;2022-07-15T08:05:24;6.15;;;3.67;;
23080;SDS011;11708;50.570;8.532;2022-07-15T08:07:50;8.25;;;4.20;;
23080;SDS011;11708;50.570;8.532;2022-07-15T08:10:17;5.47;;;2.80;;
23080;SDS011;11708;50.570;8.532;2022-07-15T08:12:44;4.50;;;2.67;;
23080;SDS011;11708;50.570;8.532;2022-07-15T08:15:11;2.45;;;2.25;;
23080;SDS011;11708;50.570;8.532;2022-07-15T08:17:38;6.60;;;2.25;;
23080;SDS011;11708;50.570;8.532;2022-07-15T08:20:07;6.22;;;2.92;;
23080;SDS011;11708;50.570;8.532;2022-07-15T08:22:34;4.88;;;2.33;;
23080;SDS011;11708;50.570;8.532;2022-07-15T08:25:02;4.05;;;2.33;;
23080;SDS011;11708;50.570;8.532;2022-07-15T08:27:28;9.32;;;2.40;;
23080;SDS011;11708;50.570;8.532;2022-07-15T08:29:55;2.72;;;2.05;;
23080;SDS011;11708;50.570;8.532;2022-07-15T08:32:21;5.05;;;2.95;;
23080;SDS011;11708;50.570;8.532;2022-07-15T08:34:46;5.20;;;2.47;;
23080;SDS011;11708;50.570;8.532;2022-07-15T08:37:12;4.40;;;2.35;;
23080;SDS011;11708;50.570;8.532;2022-07-15T08:39:38;3.83;;;1.92;;
23080;SDS011;11708;50.570;8.532;2022-07-15T08:42:05;2.88;;;1.98;;
23080;SDS011;11708;50.570;8.532;2022-07-15T08:44:31;5.53;;;2.30;;
23080;SDS011;11708;50.570;8.532;2022-07-15T08:46:58;7.35;;;2.63;;
23080;SDS011;11708;50.570;8.532;2022-07-15T08:49:27;6.47;;;2.67;;
23080;SDS011;11708;50.570;8.532;2022-07-15T08:51:54;6.40;;;2.70;;
23080;SDS011;11708;50.570;8.532;2022-07-15T08:54:22;7.93;;;2.80;;
23080;SDS011;11708;50.570;8.532;2022-07-15T08:56:48;4.95;;;2.55;;
23080;SDS011;11708;50.570;8.532;2022-07-15T08:59:14;3.95;;;2.25;;
23080;SDS011;11708;50.570;8.532;2022-07-15T09:01:43;5.90;;;2.60;;
23080;SDS011;11708;50.570;8.532;2022-07-15T09:04:10;4.93;;;2.78;;
23080;SDS011;11708;50.570;8.532;2022-07-15T09:06:41;4.95;;;2.90;;
23080;SDS011;11708;50.570;8.532;2022-07-15T09:09:27;6.85;;;2.78;;
23080;SDS011;11708;50.570;8.532;2022-07-15T09:12:14;4.30;;;2.83;;
23080;SDS011;11708;50.570;8.532;2022-07-15T09:14:41;7.55;;;3.00;;
23080;SDS011;11708;50.570;8.532;2022-07-15T09:22:25;2.30;;;1.73;;
23080;SDS011;11708;50.570;8.532;2022-07-15T09:25:09;5.57;;;1.83;;
23080;SDS011;11708;50.570;8.532;2022-07-15T09:27:41;2.10;;;1.77;;
23080;SDS011;11708;50.570;8.532;2022-07-15T09:33:04;2.83;;;1.80;;
23080;SDS011;11708;50.570;8.532;2022-07-15T09:35:49;3.42;;;1.92;;
23080;SDS011;11708;50.570;8.532;2022-07-15T09:38:31;3.67;;;2.00;;
23080;SDS011;11708;50.570;8.532;2022-07-15T09:41:00;2.78;;;1.83;;
23080;SDS011;11708;50.570;8.532;2022-07-15T09:43:26;4.32;;;2.03;;
23080;SDS011;11708;50.570;8.532;2022-07-15T09:45:59;3.92;;;1.58;;
23080;SDS011;11708;50.570;8.532;2022-07-15T09:48:26;2.65;;;1.50;;
23080;SDS011;11708;50.570;8.532;2022-07-15T09:50:57;2.00;;;1.50;;
23080;SDS011;11708;50.570;8.532;2022-07-15T09:53:24;2.72;;;1.55;;
23080;SDS011;11708;50.570;8.532;2022-07-15T09:55:49;1.67;;;1.35;;
23080;SDS011;11708;50.570;8.532;2022-07-15T09:58:17;1.83;;;1.23;;
23080;SDS011;11708;50.570;8.532;2022-07-15T10:00:44;2.95;;;1.60;;
23080;SDS011;11708;50.570;8.532;2022-07-15T10:03:10;2.42;;;1.33;;
23080;SDS011;11708;50.570;8.532;2022-07-15T10:05:36;3.63;;;1.60;;
23080;SDS011;11708;50.570;8.532;2022-07-15T10:08:04;2.47;;;1.40;;
23080;SDS011;11708;50.570;8.532;2022-07-15T10:10:34;3.42;;;1.65;;
23080;SDS011;11708;50.570;8.532;2022-07-15T10:13:05;4.75;;;1.55;;
23080;SDS011;11708;50.570;8.532;2022-07-15T10:15:47;3.45;;;1.75;;
23080;SDS011;11708;50.570;8.532;2022-07-15T10:21:35;3.03;;;1.50;;
23080;SDS011;11708;50.570;8.532;2022-07-15T10:27:22;2.25;;;1.60;;
23080;SDS011;11708;50.570;8.532;2022-07-15T10:29:58;4.50;;;1.60;;
23080;SDS011;11708;50.570;8.532;2022-07-15T10:32:28;5.70;;;1.73;;
23080;SDS011;11708;50.570;8.532;2022-07-15T10:34:54;1.80;;;1.30;;
23080;SDS011;11708;50.570;8.532;2022-07-15T10:37:20;2.17;;;1.30;;
23080;SDS011;11708;50.570;8.532;2022-07-15T10:42:11;3.25;;;1.77;;
23080;SDS011;11708;50.570;8.532;2022-07-15T10:44:47;4.82;;;1.40;;
23080;SDS011;11708;50.570;8.532;2022-07-15T10:49:40;3.67;;;1.75;;
23080;SDS011;11708;50.570;8.532;2022-07-15T10:52:18;4.40;;;1.38;;
23080;SDS011;11708;50.570;8.532;2022-07-15T11:03:03;5.57;;;1.50;;
23080;SDS011;11708;50.570;8.532;2022-07-15T11:05:30;3.38;;;1.70;;
23080;SDS011;11708;50.570;8.532;2022-07-15T11:07:57;3.30;;;1.70;;
23080;SDS011;11708;50.570;8.532;2022-07-15T11:10:22;5.80;;;1.60;;
23080;SDS011;11708;50.570;8.532;2022-07-15T11:15:14;4.05;;;1.60;;
23080;SDS011;11708;50.570;8.532;2022-07-15T11:17:45;3.85;;;1.45;;
23080;SDS011;11708;50.570;8.532;2022-07-15T11:20:17;3.33;;;1.48;;
23080;SDS011;11708;50.570;8.532;2022-07-15T11:22:49;1.88;;;1.42;;
23080;SDS011;11708;50.570;8.532;2022-07-15T11:30:39;4.07;;;1.60;;
23080;SDS011;11708;50.570;8.532;2022-07-15T11:33:07;3.65;;;1.70;;
23080;SDS011;11708;50.570;8.532;2022-07-15T11:35:45;3.20;;;1.52;;
23080;SDS011;11708;50.570;8.532;2022-07-15T11:38:18;1.52;;;1.40;;
23080;SDS011;11708;50.570;8.532;2022-07-15T11:40:48;3.67;;;1.65;;
23080;SDS011;11708;50.570;8.532;2022-07-15T11:43:37;2.85;;;1.40;;
23080;SDS011;11708;50.570;8.532;2022-07-15T11:46:21;4.03;;;1.55;;
23080;SDS011;11708;50.570;8.532;2022-07-15T11:48:48;2.17;;;1.70;;
23080;SDS011;11708;50.570;8.532;2022-07-15T11:51:14;2.35;;;1.60;;
23080;SDS011;11708;50.570;8.532;2022-07-15T11:53:41;3.17;;;1.60;;
23080;SDS011;11708;50.570;8.532;2022-07-15T11:56:10;5.80;;;3.45;;
23080;SDS011;11708;50.570;8.532;2022-07-15T11:58:41;3.00;;;1.60;;
23080;SDS011;11708;50.570;8.532;2022-07-15T12:01:12;3.17;;;1.50;;
23080;SDS011;11708;50.570;8.532;2022-07-15T12:03:46;2.80;;;1.50;;
23080;SDS011;11708;50.570;8.532;2022-07-15T12:06:14;4.10;;;1.70;;
23080;SDS011;11708;50.570;8.532;2022-07-15T12:13:49;4.75;;;2.05;;
23080;SDS011;11708;50.570;8.532;2022-07-15T12:16:25;3.33;;;1.90;;
23080;SDS011;11708;50.570;8.532;2022-07-15T12:19:01;2.78;;;1.60;;
23080;SDS011;11708;50.570;8.532;2022-07-15T12:21:32;3.80;;;1.80;;
23080;SDS011;11708;50.570;8.532;2022-07-15T12:24:03;3.28;;;1.60;;
23080;SDS011;11708;50.570;8.532;2022-07-15T12:27:03;2.75;;;1.65;;
23080;SDS011;11708;50.570;8.532;2022-07-15T12:29:31;2.22;;;1.40;;
23080;SDS011;11708;50.570;8.532;2022-07-15T12:32:02;1.45;;;1.27;;
23080;SDS011;11708;50.570;8.532;2022-07-15T12:39:54;2.45;;;1.67;;
23080;SDS011;11708;50.570;8.532;2022-07-15T12:42:21;2.38;;;1.63;;
23080;SDS011;11708;50.570;8.532;2022-07-15T12:45:04;4.60;;;1.90;;
23080;SDS011;11708;50.570;8.532;2022-07-15T12:47:40;5.13;;;2.00;;
23080;SDS011;11708;50.570;8.532;2022-07-15T12:53:08;4.03;;;2.05;;
23080;SDS011;11708;50.570;8.532;2022-07-15T12:55:40;3.92;;;1.70;;
23080;SDS011;11708;50.570;8.532;2022-07-15T12:58:08;2.67;;;1.90;;
23080;SDS011;11708;50.570;8.532;2022-07-15T13:00:42;2.50;;;1.98;;
23080;SDS011;11708;50.570;8.532;2022-07-15T13:03:10;3.97;;;1.92;;
23080;SDS011;11708;50.570;8.532;2022-07-15T13:05:41;2.67;;;1.55;;
23080;SDS011;11708;50.570;8.532;2022-07-15T13:08:14;3.75;;;1.92;;
23080;SDS011;11708;50.570;8.532;2022-07-15T13:10:42;4.78;;;1.70;;
23080;SDS011;11708;50.570;8.532;2022-07-15T13:13:14;4.38;;;1.90;;
23080;SDS011;11708;50.570;8.532;2022-07-15T13:15:43;5.65;;;2.08;;
23080;SDS011;11708;50.570;8.532;2022-07-15T13:18:10;1.75;;;1.58;;
23080;SDS011;11708;50.570;8.532;2022-07-15T13:20:36;3.60;;;1.55;;
23080;SDS011;11708;50.570;8.532;2022-07-15T13:23:02;4.32;;;1.90;;
23080;SDS011;11708;50.570;8.532;2022-07-15T13:25:30;3.92;;;1.90;;
23080;SDS011;11708;50.570;8.532;2022-07-15T13:27:56;3.33;;;1.70;;
23080;SDS011;11708;50.570;8.532;2022-07-15T13:30:23;2.50;;;1.65;;
23080;SDS011;11708;50.570;8.532;2022-07-15T13:32:52;4.13;;;3.00;;
23080;SDS011;11708;50.570;8.532;2022-07-15T13:35:17;6.72;;;3.33;;
23080;SDS011;11708;50.570;8.532;2022-07-15T13:37:43;3.90;;;1.75;;
23080;SDS011;11708;50.570;8.532;2022-07-15T13:40:12;2.95;;;1.80;;
23080;SDS011;11708;50.570;8.532;2022-07-15T13:42:38;4.47;;;2.15;;
23080;SDS011;11708;50.570;8.532;2022-07-15T13:45:05;2.50;;;1.60;;
23080;SDS011;11708;50.570;8.532;2022-07-15T13:47:31;2.25;;;1.83;;
23080;SDS011;11708;50.570;8.532;2022-07-15T13:49:57;6.00;;;1.88;;
23080;SDS011;11708;50.570;8.532;2022-07-15T13:52:45;4.07;;;1.95;;
23080;SDS011;11708;50.570;8.532;2022-07-15T13:55:16;5.38;;;2.00;;
23080;SDS011;11708;50.570;8.532;2022-07-15T13:57:42;3.00;;;1.85;;
23080;SDS011;11708;50.570;8.532;2022-07-15T14:00:09;2.10;;;1.63;;
23080;SDS011;11708;50.570;8.532;2022-07-15T14:02:37;5.18;;;2.03;;
23080;SDS011;11708;50.570;8.532;2022-07-15T14:05:03;4.03;;;1.80;;
23080;SDS011;11708;50.570;8.532;2022-07-15T14:07:30;3.53;;;1.92;;
23080;SDS011;11708;50.570;8.532;2022-07-15T14:09:56;3.30;;;1.80;;
23080;SDS011;11708;50.570;8.532;2022-07-15T14:12:22;2.97;;;1.88;;
23080;SDS011;11708;50.570;8.532;2022-07-15T14:14:48;3.90;;;1.50;;
23080;SDS011;11708;50.570;8.532;2022-07-15T14:17:14;4.63;;;1.55;;
23080;SDS011;11708;50.570;8.532;2022-07-15T14:19:43;3.45;;;1.60;;
23080;SDS011;11708;50.570;8.532;2022-07-15T14:22:08;5.20;;;1.52;;
23080;SDS011;11708;50.570;8.532;2022-07-15T14:24:34;3.80;;;1.40;;
23080;SDS011;11708;50.570;8.532;2022-07-15T14:26:59;3.97;;;1.40;;
23080;SDS011;11708;50.570;8.532;2022-07-15T14:29:25;4.15;;;1.67;;
23080;SDS011;11708;50.570;8.532;2022-07-15T14:31:51;3.10;;;1.50;;
23080;SDS011;11708;50.570;8.532;2022-07-15T14:34:16;2.22;;;1.45;;
23080;SDS011;11708;50.570;8.532;2022-07-15T14:36:42;2.97;;;1.70;;
23080;SDS011;11708;50.570;8.532;2022-07-15T14:39:08;2.15;;;1.33;;
23080;SDS011;11708;50.570;8.532;2022-07-15T14:41:33;3.67;;;1.67;;
23080;SDS011;11708;50.570;8.532;2022-07-15T14:43:59;4.32;;;1.30;;
23080;SDS011;11708;50.570;8.532;2022-07-15T14:46:25;3.90;;;1.40;;
23080;SDS011;11708;50.570;8.532;2022-07-15T14:48:51;1.75;;;1.20;;
23080;SDS011;11708;50.570;8.532;2022-07-15T14:51:16;2.28;;;1.40;;
23080;SDS011;11708;50.570;8.532;2022-07-15T14:53:42;3.75;;;1.30;;
23080;SDS011;11708;50.570;8.532;2022-07-15T14:56:11;3.58;;;1.17;;
23080;SDS011;11708;50.570;8.532;2022-07-15T14:58:36;3.35;;;1.40;;
23080;SDS011;11708;50.570;8.532;2022-07-15T15:01:02;4.20;;;1.48;;
23080;SDS011;11708;50.570;8.532;2022-07-15T15:03:28;5.55;;;1.42;;
23080;SDS011;11708;50.570;8.532;2022-07-15T15:05:53;2.88;;;1.15;;
23080;SDS011;11708;50.570;8.532;2022-07-15T15:08:19;2.25;;;1.35;;
23080;SDS011;11708;50.570;8.532;2022-07-15T15:10:45;5.00;;;1.42;;
23080;SDS011;11708;50.570;8.532;2022-07-15T15:13:11;2.78;;;1.30;;
23080;SDS011;11708;50.570;8.532;2022-07-15T15:15:36;2.03;;;1.35;;
23080;SDS011;11708;50.570;8.532;2022-07-15T15:18:02;4.28;;;1.58;;
23080;SDS011;11708;50.570;8.532;2022-07-15T15:20:28;4.80;;;1.30;;
23080;SDS011;11708;50.570;8.532;2022-07-15T15:22:55;2.38;;;1.10;;
23080;SDS011;11708;50.570;8.532;2022-07-15T15:25:20;3.20;;;1.50;;
23080;SDS011;11708;50.570;8.532;2022-07-15T15:28:05;2.58;;;1.50;;
23080;SDS011;11708;50.570;8.532;2022-07-15T15:30:30;4.80;;;1.73;;
23080;SDS011;11708;50.570;8.532;2022-07-15T15:32:59;1.38;;;1.20;;
23080;SDS011;11708;50.570;8.532;2022-07-15T15:35:25;1.77;;;1.40;;
23080;SDS011;11708;50.570;8.532;2022-07-15T15:37:51;2.40;;;1.27;;